Time;durP1;ratioP1;P1;durP2;ratioP2;P2;SDS_P1;SDS_P2;PMS_P1;PMS_P2;Temp;Humidity;BMP_temperature;BMP_pressure;BME280_temperature;BME280_humidity;BME280_pressure;Samples;Min_cycle;Max_cycle;Signal;HPM_P1;HPM_P2
2023/02/16 00:01:17;;;;;;;19.38;14.00;;;6.70;99.90;;;;;;5010156;28;20045;-65
2023/02/16 00:04:17;;;;;;;16.65;12.57;;;6.60;99.90;;;;;;5008505;28;20083;-64
2023/02/16 00:07:03;;;;;;;17.23;12.45;;;6.60;99.90;;;;;;5009042;28;20044;-64
2023/02/16 00:09:49;;;;;;;17.92;12.93;;;6.60;99.90;;;;;;5010773;28;20052;-65
2023/02/16 00:15:41;;;;;;;19.70;13.55;;;6.50;99.90;;;;;;5009752;28;20143;-65
2023/02/16 00:18:27;;;;;;;17.05;13.35;;;6.50;99.90;;;;;;5011166;28;20121;-65
2023/02/16 00:21:14;;;;;;;18.77;13.50;;;6.50;99.90;;;;;;5011537;28;20084;-65
2023/02/16 00:24:00;;;;;;;18.48;12.07;;;6.50;99.90;;;;;;5009705;28;20409;-65
2023/02/16 00:26:46;;;;;;;18.73;12.52;;;6.50;99.90;;;;;;5012626;28;20503;-65
2023/02/16 00:29:35;;;;;;;17.15;12.25;;;6.50;99.90;;;;;;5008652;28;20044;-65
2023/02/16 00:32:21;;;;;;;17.75;12.63;;;6.40;99.90;;;;;;5009372;28;20047;-65
2023/02/16 00:35:18;;;;;;;18.05;12.88;;;6.40;99.90;;;;;;5009332;28;20072;-65
2023/02/16 00:38:04;;;;;;;17.25;12.73;;;6.40;99.90;;;;;;5011546;28;20042;-65
2023/02/16 00:40:50;;;;;;;16.27;11.88;;;6.40;99.90;;;;;;5008615;28;20064;-65
2023/02/16 00:43:36;;;;;;;20.30;12.10;;;6.40;99.90;;;;;;5009448;28;20029;-64
2023/02/16 00:46:22;;;;;;;17.15;11.70;;;6.30;99.90;;;;;;5007870;28;20021;-65
2023/02/16 00:49:19;;;;;;;16.67;12.32;;;6.30;99.90;;;;;;5014200;28;20504;-65
2023/02/16 00:52:35;;;;;;;19.05;12.00;;;6.30;99.90;;;;;;5004397;28;20116;-65
2023/02/16 00:55:23;;;;;;;17.75;11.57;;;6.20;99.90;;;;;;5009469;28;20579;-64
2023/02/16 00:58:24;;;;;;;16.60;12.43;;;6.20;99.90;;;;;;5008662;28;20099;-64
2023/02/16 01:01:16;;;;;;;15.23;11.13;;;6.20;99.90;;;;;;4988899;28;20460;-64
2023/02/16 01:04:04;;;;;;;15.27;11.63;;;6.10;99.90;;;;;;4988839;28;20041;-64
2023/02/16 01:13:00;;;;;;;16.35;12.48;;;6.10;99.90;;;;;;4988848;28;20141;-65
2023/02/16 01:15:46;;;;;;;15.60;11.77;;;6.10;99.90;;;;;;4990492;28;20551;-65
2023/02/16 01:18:32;;;;;;;17.20;11.93;;;6.10;99.90;;;;;;4990145;28;20556;-65
2023/02/16 01:21:20;;;;;;;20.85;13.25;;;6.00;99.90;;;;;;4989383;28;20022;-65
2023/02/16 01:24:06;;;;;;;16.20;11.93;;;6.00;99.90;;;;;;4991129;28;20485;-66
2023/02/16 01:26:52;;;;;;;16.92;13.13;;;6.00;99.90;;;;;;4988945;28;20524;-65
2023/02/16 01:29:38;;;;;;;15.20;11.77;;;6.00;99.90;;;;;;4990187;28;20073;-64
2023/02/16 01:32:24;;;;;;;19.25;13.00;;;5.90;99.90;;;;;;4987522;28;20057;-64
2023/02/16 01:35:10;;;;;;;17.75;12.60;;;5.90;99.90;;;;;;4991167;28;20446;-64
2023/02/16 01:37:56;;;;;;;19.30;12.52;;;5.90;99.90;;;;;;4977253;28;20038;-64
2023/02/16 01:40:50;;;;;;;18.52;13.18;;;5.90;99.90;;;;;;4991106;28;20030;-65
2023/02/16 01:43:46;;;;;;;17.95;12.93;;;5.90;99.90;;;;;;4986999;28;20045;-65
2023/02/16 01:46:42;;;;;;;18.00;12.48;;;5.90;99.90;;;;;;4990498;28;20121;-65
2023/02/16 01:49:28;;;;;;;18.70;12.60;;;5.90;99.90;;;;;;4996591;28;20109;-64
2023/02/16 01:52:34;;;;;;;18.77;12.75;;;5.90;99.90;;;;;;4990095;28;20201;-64
2023/02/16 01:55:26;;;;;;;19.50;12.40;;;5.90;99.90;;;;;;4991154;28;20045;-65
2023/02/16 01:58:44;;;;;;;17.23;12.82;;;5.80;99.90;;;;;;4990963;28;20045;-65
2023/02/16 02:01:49;;;;;;;16.88;12.82;;;5.80;99.90;;;;;;5013011;28;20112;-64
2023/02/16 02:08:00;;;;;;;18.55;12.35;;;5.80;99.90;;;;;;5013333;28;20057;-64
2023/02/16 02:11:24;;;;;;;16.02;11.40;;;5.80;99.90;;;;;;5012251;28;20457;-65
2023/02/16 02:14:25;;;;;;;17.20;12.23;;;5.80;99.90;;;;;;5011890;28;20084;-64
2023/02/16 02:17:16;;;;;;;14.60;11.15;;;5.70;99.90;;;;;;5012616;28;20052;-64
2023/02/16 02:23:44;;;;;;;17.13;11.73;;;5.70;99.90;;;;;;5014735;28;20075;-65
2023/02/16 02:26:48;;;;;;;16.73;12.57;;;5.60;99.90;;;;;;5012691;28;20037;-64
2023/02/16 02:29:49;;;;;;;16.77;12.35;;;5.60;99.90;;;;;;5009788;28;20068;-65
2023/02/16 02:33:16;;;;;;;15.70;11.02;;;5.60;99.90;;;;;;5011736;28;20077;-65
2023/02/16 02:36:29;;;;;;;18.17;12.27;;;5.60;99.90;;;;;;4983900;28;20124;-64
2023/02/16 02:39:26;;;;;;;16.05;11.30;;;5.60;99.90;;;;;;4985281;28;20022;-65
2023/02/16 02:42:31;;;;;;;18.05;11.38;;;5.60;99.90;;;;;;5011499;28;20050;-65
2023/02/16 02:45:34;;;;;;;17.27;11.93;;;5.60;99.90;;;;;;5009898;28;20115;-65
2023/02/16 02:48:20;;;;;;;16.67;11.73;;;5.60;99.90;;;;;;5014053;28;20030;-65
2023/02/16 02:51:27;;;;;;;15.65;11.50;;;5.60;99.90;;;;;;5011476;28;20029;-65
2023/02/16 03:00:53;;;;;;;14.45;10.88;;;5.50;99.90;;;;;;5012636;28;20209;-65
2023/02/16 03:03:47;;;;;;;18.02;13.15;;;5.40;99.90;;;;;;5011439;28;20045;-65
2023/02/16 03:06:37;;;;;;;17.17;12.02;;;5.40;99.90;;;;;;5010748;28;20053;-65
2023/02/16 03:09:24;;;;;;;15.50;12.50;;;5.40;99.90;;;;;;5012956;28;20033;-65
2023/02/16 03:15:16;;;;;;;17.00;13.00;;;5.40;99.90;;;;;;5009827;28;20121;-65
2023/02/16 03:30:46;;;;;;;18.05;13.63;;;5.40;99.90;;;;;;5011187;28;20417;-65
2023/02/16 03:33:33;;;;;;;18.48;12.35;;;5.30;99.90;;;;;;5011091;28;20104;-65
2023/02/16 03:36:21;;;;;;;18.15;11.88;;;5.30;99.90;;;;;;5011394;28;20049;-64
2023/02/16 03:39:08;;;;;;;21.13;13.40;;;5.30;99.90;;;;;;5011868;28;20116;-64
2023/02/16 03:41:56;;;;;;;17.90;13.27;;;5.30;99.90;;;;;;5004313;28;20063;-64
2023/02/16 03:44:42;;;;;;;17.15;12.13;;;5.30;99.90;;;;;;5010085;28;20620;-64
2023/02/16 03:47:28;;;;;;;17.73;12.43;;;5.30;99.90;;;;;;5010695;28;20048;-63
2023/02/16 03:50:14;;;;;;;17.58;12.32;;;5.20;99.90;;;;;;4993736;28;20059;-65
2023/02/16 03:53:06;;;;;;;17.63;12.20;;;5.20;99.90;;;;;;5007754;28;20485;-64
2023/02/16 03:55:52;;;;;;;18.25;12.82;;;5.20;99.90;;;;;;5011727;28;20461;-65
2023/02/16 03:58:38;;;;;;;19.45;13.93;;;5.20;99.90;;;;;;5008690;28;20404;-64
2023/02/16 04:01:25;;;;;;;18.63;12.88;;;5.20;99.90;;;;;;5009222;28;21424;-64
2023/02/16 04:04:11;;;;;;;17.25;12.27;;;5.20;99.90;;;;;;5010008;28;20046;-64
2023/02/16 04:06:56;;;;;;;16.85;12.05;;;5.20;99.90;;;;;;5012087;28;20044;-65
2023/02/16 04:09:42;;;;;;;17.92;12.82;;;5.10;99.90;;;;;;5009206;28;20052;-64
2023/02/16 04:12:37;;;;;;;21.73;13.00;;;5.10;99.90;;;;;;5009682;28;20037;-64
2023/02/16 04:15:26;;;;;;;19.23;12.82;;;5.10;99.90;;;;;;5002168;28;20133;-64
2023/02/16 04:18:12;;;;;;;16.38;12.48;;;5.10;99.90;;;;;;4998503;28;20038;-65
2023/02/16 04:20:57;;;;;;;19.13;13.10;;;5.10;99.90;;;;;;5009828;28;20021;-65
2023/02/16 04:23:43;;;;;;;17.02;11.95;;;5.00;99.90;;;;;;5010686;28;20063;-65
2023/02/16 04:26:30;;;;;;;17.45;12.38;;;5.10;99.90;;;;;;5010538;28;20037;-65
2023/02/16 04:29:15;;;;;;;17.48;13.13;;;5.10;99.90;;;;;;5012793;28;20041;-65
2023/02/16 04:32:01;;;;;;;18.17;12.43;;;5.10;99.90;;;;;;5007461;28;20021;-65
2023/02/16 04:34:47;;;;;;;18.08;13.02;;;5.10;99.90;;;;;;5011002;28;20041;-65
2023/02/16 04:37:34;;;;;;;17.23;12.65;;;5.10;99.90;;;;;;5012075;28;20045;-67
2023/02/16 04:40:21;;;;;;;15.77;11.90;;;5.10;99.90;;;;;;5010462;28;20746;-67
2023/02/16 04:43:07;;;;;;;16.38;11.68;;;5.10;99.90;;;;;;5012084;28;20508;-67
2023/02/16 04:45:53;;;;;;;16.55;12.00;;;5.10;99.90;;;;;;5008214;28;20405;-67
2023/02/16 04:48:39;;;;;;;19.48;12.80;;;5.10;99.90;;;;;;5014441;28;20478;-67
2023/02/16 04:51:25;;;;;;;18.13;12.25;;;5.10;99.90;;;;;;5009021;28;20033;-67
2023/02/16 04:54:11;;;;;;;16.33;11.65;;;5.10;99.90;;;;;;5008106;28;20045;-67
2023/02/16 04:56:57;;;;;;;16.67;11.38;;;5.10;99.90;;;;;;5009724;28;20116;-67
2023/02/16 04:59:43;;;;;;;17.52;11.90;;;5.10;99.90;;;;;;4997714;28;20500;-67
2023/02/16 05:02:31;;;;;;;17.05;12.38;;;5.10;99.90;;;;;;4990317;28;20457;-67
2023/02/16 05:05:17;;;;;;;23.05;13.25;;;5.00;99.90;;;;;;4988792;28;20045;-67
2023/02/16 05:08:03;;;;;;;17.42;12.20;;;5.10;99.90;;;;;;4989650;28;20125;-67
2023/02/16 05:14:40;;;;;;;19.30;12.20;;;5.10;99.90;;;;;;4989694;28;20461;-67
2023/02/16 05:17:03;;;;;;;18.27;12.98;;;5.10;99.90;;;;;;4988152;28;19921;-67
2023/02/16 05:19:55;;;;;;;15.55;11.40;;;5.00;99.90;;;;;;4988817;28;20573;-67
2023/02/16 05:22:42;;;;;;;18.73;12.43;;;5.00;99.90;;;;;;4988768;28;20034;-66
2023/02/16 05:25:28;;;;;;;18.00;11.70;;;5.00;99.90;;;;;;4990366;28;20026;-67
2023/02/16 05:28:14;;;;;;;17.85;12.70;;;5.00;99.90;;;;;;4988665;28;20584;-67
2023/02/16 05:31:00;;;;;;;16.40;11.95;;;5.00;99.90;;;;;;4990647;28;20044;-67
2023/02/16 05:33:46;;;;;;;18.13;11.55;;;5.00;99.90;;;;;;4991912;28;20591;-67
2023/02/16 05:36:31;;;;;;;15.77;11.55;;;5.00;99.90;;;;;;4993993;28;20069;-66
2023/02/16 05:39:18;;;;;;;18.13;11.90;;;4.90;99.90;;;;;;4993240;28;20022;-67
2023/02/16 05:42:04;;;;;;;16.63;11.65;;;4.90;99.90;;;;;;4980212;28;20545;-67
2023/02/16 05:44:50;;;;;;;17.70;11.93;;;4.80;99.90;;;;;;4992430;28;20374;-67
2023/02/16 05:47:36;;;;;;;17.55;12.07;;;4.80;99.90;;;;;;4993453;28;20054;-67
2023/02/16 05:50:22;;;;;;;16.90;11.82;;;4.80;99.90;;;;;;4993749;28;20037;-67
2023/02/16 05:53:08;;;;;;;21.35;13.00;;;4.70;99.90;;;;;;4990150;28;20049;-66
2023/02/16 05:55:54;;;;;;;17.83;12.82;;;4.80;99.90;;;;;;4994832;28;20160;-66
2023/02/16 05:58:40;;;;;;;18.35;12.48;;;4.80;99.90;;;;;;4994253;28;20041;-67
2023/02/16 06:01:27;;;;;;;16.90;11.43;;;4.80;99.90;;;;;;4996156;28;20037;-67
2023/02/16 06:04:14;;;;;;;19.25;12.57;;;4.80;99.90;;;;;;5012932;28;20056;-66
2023/02/16 06:07:00;;;;;;;19.15;12.73;;;4.80;99.90;;;;;;5012116;28;20134;-67
2023/02/16 06:09:46;;;;;;;18.88;12.52;;;4.80;99.90;;;;;;5012238;28;20032;-67
2023/02/16 06:12:33;;;;;;;18.17;11.88;;;4.90;99.90;;;;;;5011664;28;20124;-67
2023/02/16 06:15:19;;;;;;;18.27;11.82;;;4.80;99.90;;;;;;4998428;28;20037;-67
2023/02/16 06:18:05;;;;;;;19.10;12.45;;;4.80;99.90;;;;;;4998945;28;20041;-67
2023/02/16 06:20:55;;;;;;;18.80;11.55;;;4.80;99.90;;;;;;5002245;28;20425;-68
2023/02/16 06:23:41;;;;;;;17.90;11.73;;;4.80;99.90;;;;;;5013317;28;20037;-67
2023/02/16 06:26:27;;;;;;;18.00;11.35;;;4.80;99.90;;;;;;5013543;28;20059;-67
2023/02/16 06:29:13;;;;;;;17.33;12.80;;;4.70;99.90;;;;;;5011578;28;20551;-67
2023/02/16 06:31:59;;;;;;;19.70;12.88;;;4.70;99.90;;;;;;5012763;28;20308;-67
2023/02/16 06:34:45;;;;;;;19.73;12.98;;;4.70;99.90;;;;;;5011444;28;20048;-67
2023/02/16 06:37:31;;;;;;;18.95;13.10;;;4.60;99.90;;;;;;5013393;28;20046;-67
2023/02/16 06:40:18;;;;;;;17.85;11.52;;;4.60;99.90;;;;;;5011403;28;20095;-66
2023/02/16 06:43:03;;;;;;;18.10;12.32;;;4.60;99.90;;;;;;5012287;28;20061;-67
2023/02/16 06:45:50;;;;;;;17.63;11.65;;;4.70;99.90;;;;;;5012308;28;20037;-67
2023/02/16 06:48:36;;;;;;;19.50;12.63;;;4.70;99.90;;;;;;5013604;28;20440;-67
2023/02/16 06:51:22;;;;;;;18.45;12.00;;;4.70;99.90;;;;;;4998120;28;20025;-66
2023/02/16 06:54:08;;;;;;;22.05;13.32;;;4.70;99.90;;;;;;4999411;28;20132;-67
2023/02/16 06:56:53;;;;;;;19.98;12.00;;;4.70;99.90;;;;;;5009967;28;20026;-67
2023/02/16 06:59:39;;;;;;;103.07;23.42;;;4.70;99.90;;;;;;5011271;28;20141;-67
2023/02/16 07:02:25;;;;;;;48.88;16.70;;;4.70;99.90;;;;;;5012987;28;20033;-66
2023/02/16 07:05:11;;;;;;;24.30;12.63;;;4.70;99.90;;;;;;5011265;28;20029;-66
2023/02/16 07:07:57;;;;;;;22.92;12.18;;;4.70;99.90;;;;;;4996750;28;20053;-66
2023/02/16 07:10:45;;;;;;;19.35;12.00;;;4.80;99.90;;;;;;5012372;28;20025;-66
2023/02/16 07:13:35;;;;;;;49.92;14.88;;;4.90;99.90;;;;;;5011007;28;20074;-66
2023/02/16 07:16:21;;;;;;;30.38;14.70;;;4.90;99.90;;;;;;5011038;28;20132;-66
2023/02/16 07:19:07;;;;;;;21.65;13.77;;;5.00;99.90;;;;;;5010512;28;20025;-66
2023/02/16 07:21:54;;;;;;;17.63;13.20;;;5.00;99.90;;;;;;5010801;28;20036;-66
2023/02/16 07:24:40;;;;;;;19.52;12.18;;;5.10;99.90;;;;;;4994560;28;20034;-66
2023/02/16 07:27:26;;;;;;;26.10;13.65;;;5.20;99.90;;;;;;5011581;28;20528;-66
2023/02/16 07:30:15;;;;;;;22.52;13.60;;;5.20;99.90;;;;;;5011375;28;20041;-66
2023/02/16 07:33:01;;;;;;;20.35;12.77;;;5.20;99.90;;;;;;5011342;28;20045;-66
2023/02/16 07:35:47;;;;;;;19.33;12.50;;;5.30;99.90;;;;;;5011170;28;20034;-66
2023/02/16 07:38:33;;;;;;;20.17;13.15;;;5.30;99.90;;;;;;5011154;28;20026;-65
2023/02/16 07:41:21;;;;;;;23.48;13.10;;;5.30;99.90;;;;;;5010611;28;20056;-66
2023/02/16 07:44:07;;;;;;;20.10;13.25;;;5.40;99.90;;;;;;5010747;28;20076;-64
2023/02/16 07:46:53;;;;;;;23.27;14.05;;;5.40;99.90;;;;;;4997082;28;20037;-62
2023/02/16 07:49:39;;;;;;;22.27;13.25;;;5.40;99.90;;;;;;5014732;28;20114;-66
2023/02/16 07:52:29;;;;;;;20.90;13.45;;;5.50;99.90;;;;;;5010493;28;20030;-67
2023/02/16 07:55:15;;;;;;;21.30;13.32;;;5.50;99.90;;;;;;4996973;28;20397;-67
2023/02/16 07:58:03;;;;;;;24.20;14.25;;;5.50;99.90;;;;;;5008265;28;20068;-67
2023/02/16 08:00:49;;;;;;;20.90;14.32;;;5.50;99.90;;;;;;5011034;28;20805;-68
2023/02/16 08:03:35;;;;;;;21.55;14.20;;;5.60;99.90;;;;;;5012631;28;20091;-68
2023/02/16 08:06:21;;;;;;;23.00;14.57;;;5.70;99.90;;;;;;4993199;28;20045;-67
2023/02/16 08:09:07;;;;;;;34.97;17.08;;;5.70;99.90;;;;;;5010065;28;20037;-67
2023/02/16 08:11:54;;;;;;;222.57;29.42;;;5.80;99.90;;;;;;4998655;28;20108;-68
2023/02/16 08:14:40;;;;;;;223.32;36.78;;;5.80;99.90;;;;;;5010031;28;20293;-68
2023/02/16 08:17:26;;;;;;;84.47;20.67;;;5.90;99.90;;;;;;5002916;28;20080;-68
2023/02/16 08:20:12;;;;;;;71.55;20.27;;;5.90;99.90;;;;;;4998094;28;20666;-68
2023/02/16 08:22:58;;;;;;;47.25;16.48;;;5.90;99.90;;;;;;5011747;28;20040;-68
2023/02/16 08:25:44;;;;;;;136.07;32.53;;;5.90;99.90;;;;;;5007743;28;20044;-68
2023/02/16 08:28:30;;;;;;;110.22;27.38;;;6.00;99.90;;;;;;5012388;28;20071;-68
2023/02/16 08:31:19;;;;;;;45.17;18.17;;;6.00;99.90;;;;;;5008594;28;20043;-68
2023/02/16 08:34:06;;;;;;;36.55;17.52;;;6.00;99.90;;;;;;5023837;28;20042;-68
2023/02/16 08:36:55;;;;;;;33.33;16.13;;;6.10;99.90;;;;;;5022281;28;20113;-66
2023/02/16 08:39:41;;;;;;;26.08;15.52;;;6.10;99.90;;;;;;5027025;28;20465;-66
2023/02/16 08:42:27;;;;;;;29.13;16.20;;;6.20;99.90;;;;;;5011678;28;20069;-66
2023/02/16 08:45:14;;;;;;;34.95;15.88;;;6.20;99.90;;;;;;5007117;28;20501;-67
2023/02/16 08:48:01;;;;;;;30.63;15.82;;;6.30;99.90;;;;;;4998294;28;20528;-65
2023/02/16 08:50:53;;;;;;;33.22;16.40;;;6.30;99.90;;;;;;5016728;28;20033;-66
2023/02/16 08:53:39;;;;;;;27.80;14.40;;;6.40;99.90;;;;;;5008590;28;20049;-66
2023/02/16 08:56:28;;;;;;;24.60;15.63;;;6.50;99.90;;;;;;5008212;28;20124;-66
2023/02/16 08:59:16;;;;;;;25.80;15.85;;;6.50;99.90;;;;;;5001054;28;20519;-66
2023/02/16 09:02:02;;;;;;;27.48;14.82;;;6.60;99.90;;;;;;4989035;28;20042;-66
2023/02/16 09:04:49;;;;;;;24.35;15.25;;;6.60;99.90;;;;;;4988379;28;20045;-66
2023/02/16 09:07:35;;;;;;;25.08;15.93;;;6.70;99.90;;;;;;4992657;28;20033;-66
2023/02/16 09:10:22;;;;;;;257.25;50.53;;;6.70;99.90;;;;;;4990253;28;20045;-65
2023/02/16 09:13:15;;;;;;;114.88;28.88;;;6.80;99.90;;;;;;4994044;28;20050;-67
2023/02/16 09:16:05;;;;;;;48.60;19.48;;;6.90;99.90;;;;;;4995717;28;20100;-66
2023/02/16 09:18:51;;;;;;;30.90;15.68;;;7.00;99.90;;;;;;4992197;28;20045;-66
2023/02/16 09:21:37;;;;;;;38.15;16.48;;;7.10;99.80;;;;;;4986572;28;20037;-66
2023/02/16 09:24:24;;;;;;;27.60;16.55;;;7.10;99.80;;;;;;4992189;28;20731;-66
2023/02/16 09:27:10;;;;;;;26.80;17.35;;;7.20;99.70;;;;;;4991534;28;20070;-66
2023/02/16 09:29:57;;;;;;;28.92;17.73;;;7.30;99.60;;;;;;4993819;28;20034;-66
2023/02/16 09:32:43;;;;;;;33.40;16.75;;;7.40;99.60;;;;;;4992733;28;20560;-67
2023/02/16 09:35:29;;;;;;;28.30;15.68;;;7.50;99.50;;;;;;4993369;28;20061;-65
2023/02/16 09:38:18;;;;;;;28.17;16.58;;;7.60;99.50;;;;;;4994998;28;20477;-65
2023/02/16 09:41:46;;;;;;;26.77;18.20;;;7.70;99.40;;;;;;4991851;28;20030;-66
2023/02/16 09:44:47;;;;;;;25.65;16.83;;;7.80;99.30;;;;;;4977199;28;20072;-66
2023/02/16 09:47:38;;;;;;;28.33;18.85;;;7.90;99.20;;;;;;4998267;28;21501;-66
2023/02/16 09:50:31;;;;;;;27.27;17.15;;;8.00;99.10;;;;;;4992734;28;20218;-67
2023/02/16 09:53:36;;;;;;;30.73;18.10;;;8.10;99.10;;;;;;4990370;28;20450;-69
2023/02/16 09:56:37;;;;;;;28.10;17.25;;;8.20;98.90;;;;;;4993584;28;20030;-67
2023/02/16 09:59:37;;;;;;;26.73;16.88;;;8.30;98.90;;;;;;5001761;28;20056;-68
2023/02/16 10:02:33;;;;;;;26.40;17.63;;;8.40;98.80;;;;;;5013599;28;20354;-68
2023/02/16 10:05:22;;;;;;;;;;;8.40;98.70;;;;;;5013153;28;20544;-66
2023/02/16 10:08:14;;;;;;;24.80;16.27;;;8.50;99.00;;;;;;5013309;28;20012;-66
2023/02/16 10:11:40;;;;;;;28.17;17.35;;;8.60;98.80;;;;;;5012462;28;20041;-66
2023/02/16 10:14:44;;;;;;;30.67;17.17;;;8.70;98.70;;;;;;4996341;28;20041;-66
2023/02/16 10:17:36;;;;;;;26.33;17.55;;;8.80;98.70;;;;;;5011304;28;20401;-67
2023/02/16 10:20:24;;;;;;;25.38;17.48;;;9.00;98.60;;;;;;5013418;28;20040;-66
2023/02/16 10:23:37;;;;;;;24.90;17.02;;;9.00;98.50;;;;;;5011458;28;20034;-67
2023/02/16 10:26:37;;;;;;;27.33;17.88;;;9.10;98.40;;;;;;5013007;28;20040;-67
2023/02/16 10:29:24;;;;;;;29.52;18.70;;;9.20;98.30;;;;;;5013425;28;20493;-67
2023/02/16 10:32:25;;;;;;;33.42;19.33;;;9.40;98.10;;;;;;5012833;28;20118;-67
2023/02/16 10:35:19;;;;;;;29.80;19.20;;;9.40;97.60;;;;;;5011983;28;20163;-67
2023/02/16 10:38:18;;;;;;;25.15;17.77;;;9.50;97.60;;;;;;5011458;28;20075;-67
2023/02/16 10:41:20;;;;;;;34.55;18.60;;;9.60;97.40;;;;;;5011827;28;20033;-67
2023/02/16 10:44:40;;;;;;;31.98;20.25;;;9.70;97.30;;;;;;5011568;28;20532;-67
2023/02/16 10:47:40;;;;;;;25.67;16.48;;;9.80;97.20;;;;;;5012551;28;20040;-68
2023/02/16 10:50:39;;;;;;;28.45;18.20;;;9.80;97.10;;;;;;5019426;28;20108;-67
2023/02/16 10:53:37;;;;;;;25.38;16.67;;;9.90;97.00;;;;;;5012671;28;20041;-67
2023/02/16 10:56:51;;;;;;;28.45;17.63;;;10.00;96.80;;;;;;5013136;28;20076;-67
2023/02/16 10:59:40;;;;;;;29.08;17.55;;;10.10;96.70;;;;;;5012048;28;20056;-68
2023/02/16 11:02:42;;;;;;;27.17;17.80;;;10.20;96.60;;;;;;5011100;28;20409;-67
2023/02/16 11:05:37;;;;;;;25.35;16.45;;;10.30;96.40;;;;;;5011661;28;20496;-68
2023/02/16 11:08:24;;;;;;;27.53;17.40;;;10.40;96.30;;;;;;5012176;28;21940;-68
2023/02/16 11:11:11;;;;;;;31.30;17.25;;;10.50;96.30;;;;;;5012743;28;20053;-68
2023/02/16 11:14:01;;;;;;;28.63;17.10;;;10.50;96.10;;;;;;4997687;28;20046;-68
2023/02/16 11:16:48;;;;;;;27.42;18.40;;;10.60;96.00;;;;;;5005679;28;20060;-67
2023/02/16 11:19:34;;;;;;;29.50;17.15;;;10.70;96.00;;;;;;5012803;28;20029;-67
2023/02/16 11:22:37;;;;;;;25.60;17.00;;;10.80;95.80;;;;;;5010321;28;20284;-67
2023/02/16 11:25:25;;;;;;;27.15;18.60;;;10.90;95.60;;;;;;5010077;28;20446;-68
2023/02/16 11:28:31;;;;;;;25.73;17.75;;;10.90;95.50;;;;;;5013767;28;20072;-68
2023/02/16 11:31:20;;;;;;;29.15;16.73;;;11.00;95.30;;;;;;5010448;28;20036;-67
2023/02/16 11:34:09;;;;;;;31.63;18.20;;;11.00;95.30;;;;;;5011722;28;20080;-68
2023/02/16 11:37:26;;;;;;;30.73;18.70;;;11.00;95.20;;;;;;5010973;28;20072;-68
2023/02/16 11:40:32;;;;;;;27.25;17.95;;;11.10;95.10;;;;;;5010115;28;20109;-68
2023/02/16 11:43:18;;;;;;;28.25;16.92;;;11.10;95.00;;;;;;5006716;28;20026;-68
2023/02/16 11:46:17;;;;;;;29.73;18.60;;;11.20;95.10;;;;;;5011388;28;20037;-68
2023/02/16 11:49:29;;;;;;;31.00;17.35;;;11.30;94.90;;;;;;5013256;28;20477;-68
2023/02/16 11:52:23;;;;;;;27.95;16.98;;;11.30;94.90;;;;;;5003650;28;20043;-67
2023/02/16 11:55:22;;;;;;;27.75;17.00;;;11.40;94.70;;;;;;5008781;28;20413;-68
2023/02/16 11:58:16;;;;;;;25.80;18.00;;;11.40;94.50;;;;;;5011690;28;20047;-68
2023/02/16 12:01:30;;;;;;;28.50;17.90;;;11.50;94.40;;;;;;5013760;28;20042;-68
2023/02/16 12:04:31;;;;;;;25.48;16.83;;;11.50;94.40;;;;;;5007840;28;20029;-68
2023/02/16 12:07:31;;;;;;;26.50;17.40;;;11.60;94.40;;;;;;5010775;28;20509;-68
2023/02/16 12:10:32;;;;;;;27.20;17.83;;;11.70;94.20;;;;;;4997709;28;20038;-68
2023/02/16 12:13:46;;;;;;;31.08;18.15;;;11.70;94.10;;;;;;5009956;28;20046;-67
2023/02/16 12:16:48;;;;;;;25.75;16.95;;;11.80;94.00;;;;;;5007736;28;20445;-68
2023/02/16 12:19:46;;;;;;;28.48;17.30;;;11.80;93.90;;;;;;5004418;28;20298;-67
2023/02/16 12:22:41;;;;;;;24.60;17.50;;;11.90;93.70;;;;;;4996377;28;20083;-67
2023/02/16 12:25:47;;;;;;;26.83;16.60;;;11.90;93.60;;;;;;5010501;28;20405;-68
2023/02/16 12:28:49;;;;;;;24.77;16.23;;;12.00;93.50;;;;;;5012277;28;20037;-68
2023/02/16 12:31:46;;;;;;;24.80;16.23;;;12.00;93.40;;;;;;5008703;28;21512;-68
2023/02/16 12:34:57;;;;;;;26.48;16.02;;;12.10;93.30;;;;;;5005277;28;20580;-68
2023/02/16 12:37:43;;;;;;;23.02;15.15;;;12.10;93.20;;;;;;5011551;28;20033;-68
2023/02/16 12:40:41;;;;;;;23.83;14.88;;;12.20;93.20;;;;;;5009949;28;20095;-68
2023/02/16 12:43:33;;;;;;;23.50;14.90;;;12.20;93.00;;;;;;5013285;28;20090;-68
2023/02/16 12:46:28;;;;;;;24.05;14.88;;;12.30;92.90;;;;;;5010281;28;20508;-68
2023/02/16 12:49:26;;;;;;;25.77;15.13;;;12.30;92.80;;;;;;5014228;28;20128;-68
2023/02/16 12:52:39;;;;;;;26.52;15.70;;;12.30;92.80;;;;;;5008804;28;20668;-68
2023/02/16 12:55:40;;;;;;;26.48;17.58;;;12.40;92.70;;;;;;5014851;28;20045;-69
2023/02/16 12:58:34;;;;;;;26.90;16.35;;;12.40;92.50;;;;;;5010062;28;20087;-70
2023/02/16 13:01:31;;;;;;;27.05;15.93;;;12.40;92.30;;;;;;4997541;28;20041;-68
2023/02/16 13:04:39;;;;;;;23.77;15.05;;;12.50;92.20;;;;;;5010041;28;20753;-67
2023/02/16 13:07:34;;;;;;;25.45;14.98;;;12.50;92.20;;;;;;5009143;28;20420;-66
2023/02/16 13:10:32;;;;;;;23.50;16.58;;;12.50;92.20;;;;;;5010050;28;20549;-66
2023/02/16 13:13:23;;;;;;;20.45;14.57;;;12.50;92.20;;;;;;5009020;28;20490;-67
2023/02/16 13:16:22;;;;;;;21.95;14.32;;;12.60;92.10;;;;;;5003919;28;20028;-67
2023/02/16 13:19:13;;;;;;;25.85;15.38;;;12.60;92.10;;;;;;5013411;28;20045;-67
2023/02/16 13:22:14;;;;;;;23.98;14.25;;;12.70;91.90;;;;;;5011724;28;20042;-68
2023/02/16 13:25:18;;;;;;;38.05;17.23;;;12.70;92.00;;;;;;5008465;28;20537;-67
2023/02/16 13:28:07;;;;;;;26.98;14.88;;;12.70;91.80;;;;;;5009205;28;20087;-67
2023/02/16 13:31:23;;;;;;;24.65;14.95;;;12.80;91.80;;;;;;5011909;28;20065;-67
2023/02/16 13:34:17;;;;;;;;;;;12.80;91.70;;;;;;4996900;28;20038;-67
2023/02/16 13:37:27;;;;;;;47.35;16.50;;;12.90;92.20;;;;;;4997082;28;19917;-67
2023/02/16 13:40:37;;;;;;;31.23;15.43;;;12.90;92.00;;;;;;5009795;28;20033;-67
2023/02/16 13:43:40;;;;;;;24.77;13.90;;;13.00;91.70;;;;;;5003614;28;20033;-66
2023/02/16 13:46:38;;;;;;;29.23;15.18;;;13.10;91.70;;;;;;5003563;28;20107;-67
2023/02/16 13:49:41;;;;;;;23.08;15.05;;;13.20;91.70;;;;;;5013987;28;20421;-67
2023/02/16 13:52:38;;;;;;;22.67;15.98;;;13.20;91.50;;;;;;5002812;28;20032;-67
2023/02/16 13:55:30;;;;;;;21.05;14.45;;;13.30;91.30;;;;;;5013537;28;20045;-67
2023/02/16 13:58:26;;;;;;;27.20;15.48;;;13.40;91.20;;;;;;5011640;28;20245;-67
2023/02/16 14:01:30;;;;;;;24.90;14.60;;;13.40;91.30;;;;;;5011937;28;20556;-67
2023/02/16 14:04:23;;;;;;;24.13;13.57;;;13.50;91.10;;;;;;5001394;28;20033;-67
2023/02/16 14:07:36;;;;;;;23.63;14.88;;;13.50;90.90;;;;;;5011809;28;20065;-67
2023/02/16 14:10:54;;;;;;;22.30;14.98;;;13.50;90.90;;;;;;5011272;28;20120;-67
2023/02/16 14:13:46;;;;;;;22.88;14.23;;;13.50;90.90;;;;;;5008237;28;20037;-68
2023/02/16 14:16:33;;;;;;;20.92;14.43;;;13.50;90.80;;;;;;5010993;28;20531;-68
2023/02/16 14:19:23;;;;;;;29.70;14.25;;;13.50;90.80;;;;;;5014104;28;20485;-68
2023/02/16 14:22:11;;;;;;;23.67;14.00;;;13.50;90.70;;;;;;5012208;28;20025;-68
2023/02/16 14:25:00;;;;;;;22.48;14.25;;;13.60;90.70;;;;;;5011852;28;20457;-69
2023/02/16 14:27:51;;;;;;;21.85;13.90;;;13.60;90.60;;;;;;5012119;28;20477;-68
2023/02/16 14:30:58;;;;;;;19.30;13.00;;;13.60;90.60;;;;;;5011053;28;20021;-69
2023/02/16 14:34:01;;;;;;;23.90;14.48;;;13.70;90.60;;;;;;5011822;28;20403;-69
2023/02/16 14:37:15;;;;;;;24.15;15.32;;;13.70;90.50;;;;;;5013295;28;20045;-68
2023/02/16 14:40:19;;;;;;;20.48;13.45;;;13.70;90.40;;;;;;5013324;28;20114;-68
2023/02/16 14:43:23;;;;;;;22.23;13.60;;;13.70;90.30;;;;;;5011647;28;20401;-69
2023/02/16 14:46:34;;;;;;;22.23;13.85;;;13.70;90.30;;;;;;5011214;28;20405;-69
2023/02/16 14:49:44;;;;;;;21.90;13.63;;;13.80;90.30;;;;;;5018968;28;20112;-67
2023/02/16 14:52:56;;;;;;;20.30;13.38;;;13.80;90.30;;;;;;5009527;28;20508;-67
2023/02/16 14:56:01;;;;;;;23.00;14.00;;;13.80;90.10;;;;;;5011495;28;20029;-68
2023/02/16 14:58:56;;;;;;;23.40;13.00;;;13.80;90.10;;;;;;5009985;28;20048;-68
2023/02/16 15:01:44;;;;;;;20.50;13.52;;;13.80;90.10;;;;;;5010155;28;20033;-66
2023/02/16 15:04:32;;;;;;;20.73;14.10;;;13.80;90.10;;;;;;5011530;28;20226;-65
2023/02/16 15:07:18;;;;;;;21.20;13.82;;;13.70;90.00;;;;;;5007564;28;20047;-65
2023/02/16 15:10:05;;;;;;;23.35;14.88;;;13.70;90.00;;;;;;5012270;28;20037;-64
2023/02/16 15:12:52;;;;;;;27.20;14.15;;;13.70;90.00;;;;;;5010023;28;20487;-64
2023/02/16 15:15:51;;;;;;;20.38;12.95;;;13.70;89.90;;;;;;5011772;28;20488;-64
2023/02/16 15:18:42;;;;;;;19.85;12.82;;;13.70;89.80;;;;;;5010895;28;20037;-65
2023/02/16 15:21:29;;;;;;;23.70;13.55;;;13.80;89.90;;;;;;5008550;28;20033;-65
2023/02/16 15:24:23;;;;;;;22.17;14.40;;;13.80;89.90;;;;;;5012644;28;20037;-64